Time;durP1;ratioP1;P1;durP2;ratioP2;P2;SDS_P1;SDS_P2;PMS_P1;PMS_P2;Temp;Humidity;BMP_temperature;BMP_pressure;BME280_temperature;BME280_humidity;BME280_pressure;Samples;Min_cycle;Max_cycle;Signal;HPM_P1;HPM_P2
2022/09/10 00:00:59;;;;;;;4.93;3.73;;;15.40;99.90;;;;;;2613684;54;20350;-73
2022/09/10 00:06:46;;;;;;;5.50;3.80;;;15.60;99.90;;;;;;2613354;54;20506;-74
2022/09/10 00:12:34;;;;;;;9.03;4.13;;;15.60;99.90;;;;;;2613652;54;20151;-72
2022/09/10 00:18:22;;;;;;;7.93;3.73;;;15.70;99.90;;;;;;2614517;54;21328;-73
2022/09/10 00:24:10;;;;;;;3.17;2.40;;;15.80;99.90;;;;;;2612639;54;20179;-73
2022/09/10 00:29:59;;;;;;;5.30;2.77;;;15.80;99.90;;;;;;2615331;54;20171;-72
2022/09/10 00:35:47;;;;;;;3.70;2.20;;;15.80;99.90;;;;;;2613821;54;21179;-73
2022/09/10 00:41:36;;;;;;;4.63;2.13;;;15.80;99.90;;;;;;2613352;54;20845;-73
2022/09/10 00:44:40;;;;;;;6.30;2.87;;;15.70;99.90;;;;;;2613095;54;20523;-72
2022/09/10 00:47:09;;;;;;;3.43;2.10;;;15.60;99.90;;;;;;2613342;47;20512;-72
2022/09/10 00:57:15;;;;;;;7.13;2.20;;;15.80;99.90;;;;;;2613445;46;20395;-72
2022/09/10 01:03:06;;;;;;;2.70;2.50;;;15.80;99.90;;;;;;2615155;39;20791;-72
2022/09/10 01:08:54;;;;;;;4.57;2.20;;;15.70;99.90;;;;;;2615709;54;20391;-73
2022/09/10 01:21:33;;;;;;;5.70;2.10;;;15.70;99.90;;;;;;2613006;54;20375;-72
2022/09/10 01:34:01;;;;;;;8.60;2.23;;;15.50;99.90;;;;;;2612834;54;20391;-71
2022/09/10 01:39:51;;;;;;;4.33;2.30;;;15.40;99.90;;;;;;2613621;39;20997;-73
2022/09/10 01:52:28;;;;;;;5.00;2.10;;;15.10;99.90;;;;;;2614291;54;20489;-73
2022/09/10 02:04:53;;;;;;;2.43;2.10;;;15.00;99.90;;;;;;2614928;54;20378;-74
2022/09/10 02:10:58;;;;;;;5.40;2.30;;;15.10;99.90;;;;;;2615081;54;20399;-72
2022/09/10 02:16:52;;;;;;;3.40;2.27;;;15.10;99.90;;;;;;2615306;54;20762;-73
2022/09/10 02:22:47;;;;;;;4.73;2.50;;;15.20;99.90;;;;;;2614469;39;20719;-73
2022/09/10 02:28:36;;;;;;;5.67;2.77;;;15.30;99.90;;;;;;2615598;54;20508;-74
2022/09/10 02:34:23;;;;;;;10.23;2.90;;;15.30;99.90;;;;;;2615088;54;20419;-73
2022/09/10 02:40:11;;;;;;;12.90;3.13;;;15.40;99.90;;;;;;2614608;54;20126;-73
2022/09/10 02:45:59;;;;;;;6.73;3.50;;;15.50;99.90;;;;;;2615414;54;20652;-73
2022/09/10 02:51:49;;;;;;;3.40;2.77;;;15.40;99.90;;;;;;2616011;54;20147;-72
2022/09/10 02:57:38;;;;;;;5.23;2.53;;;15.40;99.90;;;;;;2616388;54;20383;-72
2022/09/10 03:03:27;;;;;;;5.20;2.20;;;15.50;99.90;;;;;;2615007;54;20375;-72
2022/09/10 03:09:16;;;;;;;4.10;3.00;;;15.50;99.90;;;;;;2615575;54;20395;-72
2022/09/10 03:15:04;;;;;;;5.10;3.73;;;15.40;99.90;;;;;;2614392;54;20419;-72
2022/09/10 03:20:51;;;;;;;4.03;3.63;;;15.20;99.90;;;;;;2614606;54;20408;-73
2022/09/10 03:26:39;;;;;;;6.17;3.80;;;15.10;99.90;;;;;;2615895;54;20130;-73
2022/09/10 03:32:28;;;;;;;7.37;4.30;;;15.00;99.90;;;;;;2616714;39;20638;-73
2022/09/10 03:38:16;;;;;;;5.33;3.80;;;14.90;99.90;;;;;;2615696;54;20399;-72
2022/09/10 03:44:04;;;;;;;5.70;4.30;;;14.90;99.90;;;;;;2615627;54;20127;-73
2022/09/10 03:49:52;;;;;;;6.27;4.67;;;14.70;99.90;;;;;;2615945;54;20394;-74
2022/09/10 03:52:46;;;;;;;8.33;5.10;;;14.70;99.90;;;;;;2614765;54;20941;-74
2022/09/10 03:55:12;;;;;;;10.93;5.30;;;14.70;99.90;;;;;;2614438;54;20187;-75
2022/09/10 04:00:59;;;;;;;9.03;6.33;;;14.60;99.90;;;;;;2614233;54;20442;-74
2022/09/10 04:06:47;;;;;;;9.77;6.50;;;14.60;99.90;;;;;;2614673;54;20142;-74
2022/09/10 04:12:35;;;;;;;10.47;7.53;;;14.70;99.90;;;;;;2615355;54;20125;-73
2022/09/10 04:18:25;;;;;;;19.67;8.00;;;14.70;99.90;;;;;;2615506;54;20163;-73
2022/09/10 04:24:13;;;;;;;11.23;7.90;;;14.70;99.90;;;;;;2614820;54;20403;-73
2022/09/10 04:30:01;;;;;;;10.70;9.10;;;14.70;99.90;;;;;;2616075;54;20141;-73
2022/09/10 04:35:50;;;;;;;13.30;10.37;;;14.80;99.90;;;;;;2614612;39;20897;-73
2022/09/10 04:41:38;;;;;;;13.87;12.00;;;14.80;99.90;;;;;;2615695;54;20415;-72
2022/09/10 04:47:25;;;;;;;16.53;9.90;;;14.80;99.90;;;;;;2616361;31;20633;-74
2022/09/10 04:57:19;;;;;;;11.10;10.00;;;14.90;99.90;;;;;;2614789;54;20387;-73
2022/09/10 05:03:07;;;;;;;12.47;10.30;;;14.90;99.90;;;;;;2615844;54;20412;-72
2022/09/10 05:08:55;;;;;;;11.87;8.83;;;14.90;99.90;;;;;;2616195;54;20130;-74
2022/09/10 05:14:47;;;;;;;10.20;9.20;;;14.90;99.90;;;;;;2615822;54;20130;-74
2022/09/10 05:20:35;;;;;;;10.97;9.03;;;14.90;99.90;;;;;;2616701;54;20468;-74
2022/09/10 05:26:23;;;;;;;16.20;9.60;;;14.80;99.90;;;;;;2616802;54;20129;-74
2022/09/10 05:32:12;;;;;;;14.47;9.03;;;14.80;99.90;;;;;;2616252;54;20959;-76
2022/09/10 05:38:00;;;;;;;11.03;8.83;;;14.70;99.90;;;;;;2616591;54;20480;-75
2022/09/10 05:43:48;;;;;;;14.03;10.27;;;14.70;99.90;;;;;;2615861;54;20415;-75
2022/09/10 05:49:36;;;;;;;19.40;9.23;;;14.70;99.90;;;;;;2616458;54;20387;-75
2022/09/10 05:52:47;;;;;;;17.43;10.23;;;14.80;99.90;;;;;;2616561;47;20431;-74
2022/09/10 05:55:13;;;;;;;13.90;10.50;;;14.80;99.90;;;;;;2615923;51;20209;-75
2022/09/10 06:01:01;;;;;;;16.03;10.77;;;14.80;99.90;;;;;;2615976;54;20150;-74
2022/09/10 06:06:49;;;;;;;18.87;10.63;;;14.70;99.90;;;;;;2616703;54;20123;-74
2022/09/10 06:12:37;;;;;;;18.40;11.60;;;14.90;99.90;;;;;;2615385;39;20628;-77
2022/09/10 06:18:24;;;;;;;13.40;9.80;;;14.90;99.90;;;;;;2615038;54;21740;-74
2022/09/10 06:24:13;;;;;;;13.17;9.90;;;15.10;99.90;;;;;;2615101;54;20630;-74
2022/09/10 06:30:01;;;;;;;17.20;8.83;;;15.20;99.90;;;;;;2616373;54;20504;-75
2022/09/10 06:35:57;;;;;;;9.33;7.63;;;15.10;99.90;;;;;;2616518;54;20130;-74
2022/09/10 06:41:46;;;;;;;15.13;7.50;;;15.10;99.90;;;;;;2614376;54;20387;-75
2022/09/10 06:47:34;;;;;;;13.43;7.67;;;15.10;99.90;;;;;;2616713;54;20490;-76
2022/09/10 06:57:23;;;;;;;9.77;7.30;;;15.00;99.90;;;;;;2614765;54;20524;-75
2022/09/10 07:03:12;;;;;;;15.03;8.50;;;15.00;99.90;;;;;;2615430;54;20387;-75
2022/09/10 07:09:00;;;;;;;13.43;8.60;;;15.10;99.90;;;;;;2615916;54;20423;-75
2022/09/10 07:14:48;;;;;;;16.63;9.13;;;15.30;99.90;;;;;;2614764;54;20379;-76
2022/09/10 07:20:37;;;;;;;11.03;7.30;;;15.60;99.90;;;;;;2614154;54;20151;-75
2022/09/10 07:26:24;;;;;;;15.50;9.03;;;15.80;99.90;;;;;;2615907;54;20948;-75
2022/09/10 07:32:12;;;;;;;10.30;7.60;;;16.00;99.90;;;;;;2615920;54;20235;-75
2022/09/10 07:37:59;;;;;;;14.47;7.70;;;16.00;99.90;;;;;;2616851;39;20547;-75
2022/09/10 07:43:48;;;;;;;10.90;7.13;;;16.00;99.90;;;;;;2615987;54;20625;-75
2022/09/10 07:49:36;;;;;;;8.73;7.83;;;16.10;99.90;;;;;;2616239;54;20409;-74
2022/09/10 07:52:49;;;;;;;9.73;7.50;;;16.20;99.90;;;;;;2615192;47;20491;-73
2022/09/10 07:55:17;;;;;;;8.40;7.17;;;16.10;99.90;;;;;;2616234;54;20159;-74
2022/09/10 08:01:10;;;;;;;9.00;7.17;;;16.30;99.90;;;;;;2616132;54;20422;-75
2022/09/10 08:06:58;;;;;;;9.73;8.20;;;16.30;99.90;;;;;;2615754;54;20412;-75
2022/09/10 08:12:46;;;;;;;9.63;8.63;;;16.50;99.90;;;;;;2616513;54;20287;-72
2022/09/10 08:18:34;;;;;;;13.00;7.80;;;16.40;99.90;;;;;;2616709;54;20288;-73
2022/09/10 08:24:22;;;;;;;11.90;6.97;;;16.60;99.90;;;;;;2616270;54;20439;-74
2022/09/10 08:30:11;;;;;;;8.27;7.30;;;16.50;99.90;;;;;;2616118;54;20163;-75
2022/09/10 08:35:59;;;;;;;7.40;6.70;;;16.10;99.90;;;;;;2616777;54;20516;-77
2022/09/10 08:48:01;;;;;;;11.03;8.33;;;16.20;99.90;;;;;;2615980;54;20637;-75
2022/09/10 09:03:44;;;;;;;12.57;8.93;;;16.30;99.90;;;;;;2614138;54;20423;-75
2022/09/10 09:09:32;;;;;;;9.03;8.13;;;16.70;99.90;;;;;;2615599;54;20368;-72
2022/09/10 09:21:52;;;;;;;13.53;9.30;;;16.90;99.90;;;;;;2615187;54;20411;-74
2022/09/10 09:27:41;;;;;;;8.70;7.80;;;17.20;99.90;;;;;;2615069;54;20424;-74
2022/09/10 09:33:29;;;;;;;11.70;7.67;;;17.40;99.90;;;;;;2615450;54;20428;-75
2022/09/10 09:50:17;;;;;;;7.63;6.87;;;17.00;99.90;;;;;;2616041;54;20384;-75
2022/09/10 09:52:53;;;;;;;13.73;7.77;;;16.80;99.90;;;;;;2616011;46;20575;-76
2022/09/10 09:55:27;;;;;;;11.33;9.03;;;16.50;99.90;;;;;;2615576;47;20443;-77
2022/09/10 10:01:20;;;;;;;16.17;9.47;;;16.20;99.90;;;;;;2616335;54;20450;-75
2022/09/10 10:07:10;;;;;;;11.60;8.50;;;15.90;99.90;;;;;;2616872;54;20432;-74
2022/09/10 10:12:58;;;;;;;8.03;6.53;;;15.70;99.90;;;;;;2616039;54;20382;-74
2022/09/10 10:18:46;;;;;;;9.83;5.60;;;15.50;99.90;;;;;;2616919;54;20147;-73
2022/09/10 10:24:34;;;;;;;7.23;6.50;;;15.50;99.90;;;;;;2616158;39;21140;-73
2022/09/10 10:30:23;;;;;;;8.90;7.53;;;15.60;99.90;;;;;;2615260;54;20141;-74
2022/09/10 10:36:21;;;;;;;16.70;7.73;;;15.50;99.90;;;;;;2615788;54;20374;-74
2022/09/10 10:52:35;;;;;;;11.93;8.70;;;15.40;99.90;;;;;;2615100;54;20900;-75
2022/09/10 11:38:23;;;;;;;11.83;10.73;;;17.60;99.90;;;;;;2614733;54;20386;-75
2022/09/10 11:44:22;;;;;;;12.77;11.43;;;18.10;99.90;;;;;;2613679;54;20438;-74
2022/09/10 11:50:31;;;;;;;13.83;12.47;;;18.40;99.90;;;;;;2614424;54;20400;-74
2022/09/10 11:59:50;;;;;;;14.17;12.30;;;18.10;99.90;;;;;;2616286;54;20452;-74
2022/09/10 12:16:30;;;;;;;12.50;11.30;;;18.20;99.90;;;;;;2614603;54;20391;-76
2022/09/10 12:22:27;;;;;;;12.83;11.17;;;18.50;99.90;;;;;;2613948;54;20424;-73
2022/09/10 12:39:03;;;;;;;19.73;14.47;;;17.60;99.90;;;;;;2613940;54;20478;-77
2022/09/10 12:44:52;;;;;;;17.93;16.27;;;17.20;99.90;;;;;;2613640;54;20459;-75
2022/09/10 12:50:44;;;;;;;20.27;18.13;;;17.10;99.90;;;;;;2614109;54;20399;-75
2022/09/10 13:00:11;;;;;;;18.93;17.07;;;17.30;99.90;;;;;;2614797;54;20410;-75
2022/09/10 13:06:03;;;;;;;19.03;17.13;;;17.40;99.90;;;;;;2613982;54;22087;-76
2022/09/10 13:11:57;;;;;;;18.73;15.77;;;17.50;99.90;;;;;;2615771;54;20419;-74
2022/09/10 13:17:49;;;;;;;19.93;16.70;;;17.50;99.90;;;;;;2615992;39;20967;-76
2022/09/10 13:23:48;;;;;;;20.20;17.07;;;17.40;99.90;;;;;;2615726;54;20427;-76
2022/09/10 13:29:39;;;;;;;20.60;17.43;;;17.10;99.90;;;;;;2616679;54;20436;-75
2022/09/10 13:48:27;;;;;;;20.97;18.63;;;16.90;99.90;;;;;;2616682;54;20375;-74
2022/09/10 14:01:04;;;;;;;21.53;19.20;;;16.50;99.90;;;;;;2615269;54;20423;-74
2022/09/10 14:06:56;;;;;;;24.37;19.30;;;16.60;99.90;;;;;;2614950;54;20384;-75
2022/09/10 14:12:44;;;;;;;23.50;20.70;;;16.60;99.90;;;;;;2614992;54;20366;-76
2022/09/10 14:25:04;;;;;;;26.73;20.50;;;16.70;99.90;;;;;;2615088;54;20415;-75
2022/09/10 14:37:40;;;;;;;27.03;20.90;;;16.70;99.90;;;;;;2614581;54;21527;-73
2022/09/10 14:43:36;;;;;;;21.20;19.07;;;16.80;99.90;;;;;;2615144;54;20437;-75
2022/09/10 14:49:27;;;;;;;23.70;20.50;;;17.00;99.90;;;;;;2615400;31;20907;-73
2022/09/10 14:55:15;;;;;;;23.93;19.13;;;17.20;99.90;;;;;;2614713;54;20524;-76
2022/09/10 15:04:25;;;;;;;29.33;18.70;;;17.40;99.90;;;;;;2614800;54;21033;-76
2022/09/10 15:10:13;;;;;;;18.13;15.80;;;17.50;99.90;;;;;;2614434;54;20387;-76
2022/09/10 15:16:00;;;;;;;17.33;12.90;;;17.90;99.90;;;;;;2613793;54;20550;-75
2022/09/10 15:21:48;;;;;;;12.53;11.43;;;17.90;99.90;;;;;;2614267;54;20396;-74
2022/09/10 15:27:36;;;;;;;12.63;11.03;;;18.20;99.90;;;;;;2615938;54;20412;-76
2022/09/10 15:33:24;;;;;;;10.63;9.77;;;18.40;99.90;;;;;;2615398;54;20124;-76
2022/09/10 15:39:12;;;;;;;11.27;10.37;;;18.00;99.90;;;;;;2615900;54;20405;-76
2022/09/10 15:44:59;;;;;;;10.80;9.90;;;18.00;99.90;;;;;;2616427;39;20533;-74
2022/09/10 15:50:48;;;;;;;9.90;8.90;;;18.00;99.90;;;;;;2615586;54;20139;-75
2022/09/10 16:00:00;;;;;;;7.13;6.53;;;18.70;99.90;;;;;;2616323;54;20377;-75
2022/09/10 16:05:48;;;;;;;8.80;8.00;;;18.40;99.90;;;;;;2615877;54;20393;-75
2022/09/10 16:11:41;;;;;;;9.30;8.43;;;18.00;99.90;;;;;;2615659;54;20169;-75
2022/09/10 16:17:30;;;;;;;9.53;8.73;;;17.90;99.90;;;;;;2615414;54;20401;-74
2022/09/10 16:23:18;;;;;;;10.77;9.73;;;17.70;99.90;;;;;;2613363;54;20520;-75
2022/09/10 16:29:12;;;;;;;9.10;8.30;;;17.70;99.90;;;;;;2615099;54;20127;-74
2022/09/10 16:34:59;;;;;;;10.07;9.13;;;17.70;99.90;;;;;;2613744;54;20383;-74
2022/09/10 16:40:47;;;;;;;10.80;9.80;;;17.70;99.90;;;;;;2615414;54;20142;-74
2022/09/10 16:46:35;;;;;;;10.00;9.13;;;17.50;99.90;;;;;;2615433;54;20259;-75
2022/09/10 16:52:23;;;;;;;11.00;10.00;;;17.40;99.90;;;;;;2613488;54;20134;-73
2022/09/10 17:01:48;;;;;;;10.67;9.67;;;17.20;99.90;;;;;;2614966;54;20374;-75
2022/09/10 17:07:36;;;;;;;13.70;10.70;;;17.30;99.90;;;;;;2614889;54;20408;-75
2022/09/10 17:13:23;;;;;;;16.10;11.97;;;17.10;99.90;;;;;;2614753;54;20433;-73
2022/09/10 17:19:12;;;;;;;13.20;11.17;;;17.10;99.90;;;;;;2611009;54;20134;-74
2022/09/10 17:25:00;;;;;;;11.97;10.87;;;17.00;99.90;;;;;;2613962;54;20392;-74
2022/09/10 17:30:50;;;;;;;13.50;12.20;;;17.00;99.90;;;;;;2613264;54;20135;-75
2022/09/10 17:36:39;;;;;;;12.80;11.50;;;16.90;99.90;;;;;;2614456;54;20396;-74
2022/09/10 17:42:27;;;;;;;13.03;11.63;;;16.80;99.90;;;;;;2615013;54;20387;-75
2022/09/10 17:48:14;;;;;;;13.73;11.77;;;16.70;99.90;;;;;;2615183;54;20134;-75
2022/09/10 17:54:02;;;;;;;14.07;12.53;;;16.70;99.90;;;;;;2614711;54;20147;-74
2022/09/10 17:59:50;;;;;;;16.17;14.67;;;16.70;99.90;;;;;;2615626;39;20794;-74
2022/09/10 18:05:39;;;;;;;15.30;13.80;;;16.60;99.90;;;;;;2614394;54;20127;-73
2022/09/10 18:11:29;;;;;;;18.27;15.60;;;16.60;99.90;;;;;;2615898;54;20469;-74
2022/09/10 18:17:16;;;;;;;15.90;14.40;;;16.60;99.90;;;;;;2615923;54;20411;-75
2022/09/10 18:23:05;;;;;;;17.23;15.50;;;16.60;99.90;;;;;;2615980;54;20171;-73
2022/09/10 18:28:55;;;;;;;18.17;16.13;;;16.60;99.90;;;;;;2615858;54;20406;-73
2022/09/10 18:34:43;;;;;;;18.67;16.77;;;16.60;99.90;;;;;;2615683;54;20393;-73
2022/09/10 18:40:34;;;;;;;18.43;16.60;;;16.60;99.90;;;;;;2614587;39;20709;-74
2022/09/10 18:46:24;;;;;;;18.83;16.83;;;16.50;99.90;;;;;;2614522;54;20400;-76
2022/09/10 18:52:12;;;;;;;20.67;18.57;;;16.50;99.90;;;;;;2614850;54;20387;-74
2022/09/10 18:55:28;;;;;;;21.57;19.33;;;16.50;99.90;;;;;;2615382;54;20404;-74
2022/09/10 18:57:55;;;;;;;22.60;17.80;;;16.50;99.90;;;;;;2615519;39;20748;-76
2022/09/10 19:03:45;;;;;;;22.33;19.93;;;16.40;99.90;;;;;;2616338;54;20479;-76
2022/09/10 19:09:33;;;;;;;27.77;23.57;;;16.40;99.90;;;;;;2615703;54;20417;-74
2022/09/10 19:15:21;;;;;;;27.10;23.47;;;16.40;99.90;;;;;;2615099;54;20130;-74
2022/09/10 19:21:09;;;;;;;21.70;18.77;;;16.40;99.90;;;;;;2615013;54;20122;-75
2022/09/10 19:26:57;;;;;;;22.03;19.80;;;16.40;99.90;;;;;;2615794;54;20399;-75
2022/09/10 19:32:44;;;;;;;21.97;19.50;;;16.30;99.90;;;;;;2616152;54;20208;-75
2022/09/10 19:38:33;;;;;;;27.03;19.63;;;16.30;99.90;;;;;;2616791;39;20526;-73
2022/09/10 19:44:21;;;;;;;27.10;20.10;;;16.30;99.90;;;;;;2614740;54;20391;-75
2022/09/10 19:50:09;;;;;;;23.67;19.80;;;16.20;99.90;;;;;;2616528;54;20427;-74
2022/09/10 19:59:59;;;;;;;25.17;19.53;;;15.90;99.90;;;;;;2616248;39;20469;-74
2022/09/10 20:05:47;;;;;;;24.93;22.23;;;16.00;99.90;;;;;;2616090;54;20391;-77
2022/09/10 20:11:36;;;;;;;27.67;22.40;;;15.90;99.90;;;;;;2614888;54;20440;-76
2022/09/10 20:17:23;;;;;;;26.17;20.70;;;15.80;99.90;;;;;;2615536;54;20375;-75
2022/09/10 20:23:11;;;;;;;28.20;23.00;;;15.80;99.90;;;;;;2614946;54;20671;-74
2022/09/10 20:29:02;;;;;;;29.87;22.87;;;15.90;99.90;;;;;;2615625;39;20565;-75
2022/09/10 20:34:50;;;;;;;33.20;24.70;;;15.80;99.90;;;;;;2615914;54;20424;-75
2022/09/10 20:40:41;;;;;;;32.10;25.77;;;16.00;99.90;;;;;;2616016;39;20650;-74
2022/09/10 20:46:30;;;;;;;37.40;27.07;;;16.00;99.90;;;;;;2613537;54;20937;-74
2022/09/10 20:52:18;;;;;;;33.33;24.60;;;16.00;99.90;;;;;;2614330;54;20411;-75
2022/09/10 20:55:23;;;;;;;37.40;26.83;;;16.00;99.90;;;;;;2614991;47;20420;-74
2022/09/10 20:57:48;;;;;;;36.90;25.60;;;16.00;99.90;;;;;;2613402;54;20431;-73
2022/09/10 21:03:37;;;;;;;34.57;25.63;;;15.80;99.90;;;;;;2614409;54;20131;-75
2022/09/10 21:09:25;;;;;;;35.00;24.60;;;15.80;99.90;;;;;;2614366;39;20771;-76
2022/09/10 21:15:13;;;;;;;28.37;22.00;;;15.80;99.90;;;;;;2614797;54;20148;-75
2022/09/10 21:21:05;;;;;;;31.43;24.93;;;15.80;99.90;;;;;;2615710;39;20545;-74
2022/09/10 21:26:54;;;;;;;35.47;24.60;;;15.70;99.90;;;;;;2615863;54;20956;-74
2022/09/10 21:32:42;;;;;;;32.87;24.57;;;15.70;99.90;;;;;;2616554;46;20427;-75
2022/09/10 21:38:29;;;;;;;32.30;23.40;;;15.70;99.90;;;;;;2616384;39;20647;-73
2022/09/10 21:44:20;;;;;;;33.47;26.60;;;15.80;99.90;;;;;;2614996;54;20424;-75
2022/09/10 21:50:08;;;;;;;47.03;30.20;;;15.70;99.90;;;;;;2614684;39;22950;-74
2022/09/10 21:59:59;;;;;;;48.30;34.10;;;15.50;99.90;;;;;;2614076;54;20470;-74
2022/09/10 22:05:46;;;;;;;43.93;31.30;;;15.30;99.90;;;;;;2614569;54;20411;-73
2022/09/10 22:11:37;;;;;;;49.20;32.13;;;15.10;99.90;;;;;;2616366;39;20534;-74
2022/09/10 22:17:25;;;;;;;52.80;36.00;;;15.10;99.90;;;;;;2616175;54;21156;-74
2022/09/10 22:23:13;;;;;;;48.50;34.07;;;14.80;99.90;;;;;;2615618;54;20143;-75
2022/09/10 22:29:02;;;;;;;51.63;35.37;;;14.70;99.90;;;;;;2616577;54;20379;-74
2022/09/10 22:34:49;;;;;;;61.93;37.40;;;14.50;99.90;;;;;;2616259;54;20408;-74
2022/09/10 22:40:37;;;;;;;51.57;35.23;;;14.40;99.90;;;;;;2616063;39;20535;-75
2022/09/10 22:46:25;;;;;;;58.13;35.30;;;14.50;99.90;;;;;;2613846;54;20395;-74
2022/09/10 22:52:13;;;;;;;51.37;32.97;;;14.50;99.90;;;;;;2615740;54;20363;-74
2022/09/10 22:55:25;;;;;;;52.90;31.77;;;14.60;99.90;;;;;;2615616;54;20390;-74
2022/09/10 22:57:52;;;;;;;42.40;30.30;;;14.60;99.90;;;;;;2615968;39;20553;-74
2022/09/10 23:03:41;;;;;;;43.80;27.67;;;14.50;99.90;;;;;;2614835;54;20379;-74
2022/09/10 23:09:29;;;;;;;45.07;29.20;;;14.50;99.90;;;;;;2615845;54;20975;-74
2022/09/10 23:15:17;;;;;;;46.33;29.13;;;14.40;99.90;;;;;;2615444;39;20525;-75
2022/09/10 23:21:05;;;;;;;43.53;28.50;;;14.20;99.90;;;;;;2615160;54;20162;-75
2022/09/10 23:26:54;;;;;;;47.53;31.03;;;14.00;99.90;;;;;;2615885;39;20743;-75
2022/09/10 23:32:42;;;;;;;50.40;31.90;;;14.00;99.90;;;;;;2616318;39;20774;-75
2022/09/10 23:38:32;;;;;;;50.07;31.20;;;14.10;99.90;;;;;;2614209;46;20389;-76
2022/09/10 23:44:20;;;;;;;49.63;31.43;;;14.10;99.90;;;;;;2615514;54;20423;-74
2022/09/10 23:50:08;;;;;;;52.30;32.13;;;14.00;99.90;;;;;;2615000;54;20839;-74
2022/09/10 23:59:58;;;;;;;64.33;36.30;;;14.20;99.90;;;;;;2613203;54;20375;-77
